createdAt,value
2023-02-17T00:01:33.340Z,95.60
2023-02-17T00:04:01.415Z,95.60
2023-02-17T00:06:30.783Z,95.60
2023-02-17T00:08:59.622Z,95.60
2023-02-17T00:11:28.473Z,95.70
2023-02-17T00:13:56.597Z,95.70
2023-02-17T00:16:26.279Z,95.60
2023-02-17T00:18:56.341Z,95.40
2023-02-17T00:21:25.285Z,95.40
2023-02-17T00:23:53.318Z,95.30
2023-02-17T00:26:21.748Z,95.00
2023-02-17T00:28:50.117Z,95.00
2023-02-17T00:31:20.569Z,95.00
2023-02-17T00:33:48.256Z,95.00
2023-02-17T00:36:20.730Z,95.30
2023-02-17T00:38:51.296Z,95.10
2023-02-17T00:41:19.761Z,95.20
2023-02-17T00:43:47.922Z,95.30
2023-02-17T00:46:17.284Z,95.30
2023-02-17T00:48:46.024Z,95.30
2023-02-17T00:51:13.768Z,95.20
2023-02-17T00:53:41.511Z,95.30
2023-02-17T00:56:09.087Z,95.30
2023-02-17T00:58:36.808Z,95.30
2023-02-17T01:01:04.965Z,95.30
2023-02-17T01:03:34.438Z,95.30
2023-02-17T01:06:07.746Z,95.30
2023-02-17T01:08:34.878Z,95.40
2023-02-17T01:11:05.560Z,95.40
2023-02-17T01:13:32.953Z,95.40
2023-02-17T01:16:00.073Z,95.40
2023-02-17T01:18:27.333Z,95.30
2023-02-17T01:20:54.875Z,95.20
2023-02-17T01:23:22.092Z,94.90
2023-02-17T01:25:50.778Z,94.70
2023-02-17T01:28:21.921Z,94.60
2023-02-17T01:30:49.819Z,94.70
2023-02-17T01:33:17.377Z,94.80
2023-02-17T01:35:45.916Z,94.80
2023-02-17T01:38:13.020Z,94.70
2023-02-17T01:40:48.076Z,94.70
2023-02-17T01:43:17.896Z,94.70
2023-02-17T01:45:53.600Z,94.60
2023-02-17T01:48:31.229Z,94.40
2023-02-17T01:51:03.704Z,94.40
2023-02-17T01:53:42.165Z,94.50
2023-02-17T01:56:11.602Z,94.60
2023-02-17T01:58:43.253Z,94.60
2023-02-17T02:01:10.469Z,94.70
2023-02-17T02:03:39.430Z,94.70
2023-02-17T02:06:12.001Z,94.60
2023-02-17T02:08:49.316Z,94.50
2023-02-17T02:11:16.429Z,94.60
2023-02-17T02:13:46.341Z,94.50
2023-02-17T02:16:18.024Z,94.60
2023-02-17T02:19:14.850Z,94.70
2023-02-17T02:22:03.866Z,94.80
2023-02-17T02:24:49.703Z,94.80
2023-02-17T02:27:39.566Z,94.80
2023-02-17T02:30:27.107Z,94.90
2023-02-17T02:33:06.363Z,94.90
2023-02-17T02:35:44.887Z,95.00
2023-02-17T02:38:40.948Z,95.10
2023-02-17T02:41:34.447Z,95.00
2023-02-17T02:44:09.182Z,94.90
2023-02-17T02:46:36.950Z,94.90
2023-02-17T02:49:05.150Z,94.80
2023-02-17T02:51:51.339Z,94.80
2023-02-17T02:55:03.144Z,94.70
2023-02-17T02:57:45.733Z,94.70
2023-02-17T03:00:24.038Z,94.70
2023-02-17T03:03:02.552Z,94.60
2023-02-17T03:05:53.410Z,94.70
2023-02-17T03:08:35.091Z,94.60
2023-02-17T03:11:04.203Z,94.60
2023-02-17T03:13:39.547Z,94.60
2023-02-17T03:16:09.527Z,94.50
2023-02-17T03:18:36.676Z,94.40
2023-02-17T03:21:12.632Z,94.30
2023-02-17T03:23:39.868Z,94.10
2023-02-17T03:26:07.190Z,94.00
2023-02-17T03:28:34.822Z,94.10
2023-02-17T03:31:02.107Z,94.20
2023-02-17T03:33:29.542Z,94.30
2023-02-17T03:35:57.275Z,94.40
2023-02-17T03:38:24.612Z,94.40
2023-02-17T03:40:53.809Z,94.40
2023-02-17T03:43:20.899Z,94.50
2023-02-17T03:45:48.489Z,94.40
2023-02-17T03:48:15.491Z,94.30
2023-02-17T03:50:42.558Z,94.30
2023-02-17T03:53:11.458Z,94.40
2023-02-17T03:55:38.713Z,94.40
2023-02-17T03:58:05.948Z,94.50
2023-02-17T04:00:33.493Z,94.50
2023-02-17T04:03:00.621Z,94.60
2023-02-17T04:05:29.192Z,94.50
2023-02-17T04:07:56.296Z,94.60
2023-02-17T04:10:23.340Z,94.60
2023-02-17T04:12:50.527Z,94.60
2023-02-17T04:15:17.817Z,94.60
2023-02-17T04:17:44.942Z,94.70
2023-02-17T04:20:12.435Z,94.60
2023-02-17T04:22:39.897Z,94.60
2023-02-17T04:25:09.612Z,94.70
2023-02-17T04:27:38.357Z,94.70
2023-02-17T04:30:07.561Z,94.70
2023-02-17T04:32:35.221Z,94.60
2023-02-17T04:35:02.875Z,94.60
2023-02-17T04:37:29.923Z,94.60
2023-02-17T04:39:56.955Z,94.60
2023-02-17T04:42:26.856Z,94.60
2023-02-17T04:44:59.537Z,94.90
2023-02-17T04:47:27.052Z,94.60
2023-02-17T04:49:56.307Z,94.70
2023-02-17T04:52:23.636Z,94.60
2023-02-17T04:54:50.637Z,94.60
2023-02-17T04:57:18.106Z,94.60
2023-02-17T04:59:45.108Z,94.70
2023-02-17T05:02:12.299Z,94.60
2023-02-17T05:04:39.373Z,94.60
2023-02-17T05:07:06.473Z,94.60
2023-02-17T05:09:33.498Z,94.60
2023-02-17T05:12:00.583Z,94.60
2023-02-17T05:14:27.682Z,94.60
2023-02-17T05:16:54.697Z,94.70
2023-02-17T05:19:21.703Z,94.70
2023-02-17T05:21:49.014Z,94.70
2023-02-17T05:24:16.091Z,94.70
2023-02-17T05:26:43.692Z,94.70
2023-02-17T05:29:10.618Z,94.60
2023-02-17T05:31:37.849Z,94.60
2023-02-17T05:34:05.427Z,94.60
2023-02-17T05:36:32.556Z,94.50
2023-02-17T05:39:00.668Z,94.50
2023-02-17T05:41:28.795Z,94.50
2023-02-17T05:43:55.824Z,94.50
2023-02-17T05:46:23.329Z,94.80
2023-02-17T05:48:50.553Z,94.60
2023-02-17T05:51:17.774Z,94.60
2023-02-17T05:53:45.226Z,94.90
2023-02-17T05:56:12.577Z,94.60
2023-02-17T05:58:39.730Z,94.50
2023-02-17T06:01:10.973Z,94.40
2023-02-17T06:03:38.277Z,94.40
2023-02-17T06:06:07.525Z,94.30
2023-02-17T06:08:36.529Z,94.30
2023-02-17T06:11:04.359Z,94.30
2023-02-17T06:13:33.516Z,94.30
2023-02-17T06:16:01.819Z,94.40
2023-02-17T06:18:29.651Z,94.50
2023-02-17T06:20:58.197Z,94.50
2023-02-17T06:23:27.063Z,94.60
2023-02-17T06:25:54.340Z,94.70
2023-02-17T06:28:21.640Z,94.60
2023-02-17T06:30:51.581Z,94.70
2023-02-17T06:33:18.820Z,94.70
2023-02-17T06:35:50.770Z,94.70
2023-02-17T06:38:18.703Z,94.70
2023-02-17T06:40:46.037Z,94.70
2023-02-17T06:43:13.507Z,94.70
2023-02-17T06:45:40.985Z,94.70
2023-02-17T06:48:09.259Z,94.70
2023-02-17T06:50:36.729Z,94.80
2023-02-17T06:53:04.821Z,94.80
2023-02-17T06:55:32.929Z,94.90
2023-02-17T06:58:00.347Z,94.90
2023-02-17T07:00:28.019Z,94.90
2023-02-17T07:02:55.352Z,94.80
2023-02-17T07:05:22.909Z,94.70
2023-02-17T07:07:50.001Z,94.50
2023-02-17T07:10:17.420Z,94.40
2023-02-17T07:12:45.261Z,94.30
2023-02-17T07:15:14.826Z,94.30
2023-02-17T07:17:44.868Z,94.20
2023-02-17T07:20:12.748Z,94.20
2023-02-17T07:22:40.110Z,94.20
2023-02-17T07:25:07.981Z,94.20
2023-02-17T07:27:41.715Z,94.60
2023-02-17T07:30:09.285Z,94.30
2023-02-17T07:32:36.624Z,93.50
2023-02-17T07:35:04.078Z,92.60
2023-02-17T07:37:31.237Z,91.80
2023-02-17T07:39:58.550Z,91.20
2023-02-17T07:42:28.362Z,90.90
2023-02-17T07:44:55.841Z,90.50
2023-02-17T07:47:24.554Z,90.10
2023-02-17T07:49:53.337Z,89.40
2023-02-17T07:52:21.144Z,88.60
2023-02-17T07:54:48.315Z,87.90
2023-02-17T07:57:15.944Z,87.50
2023-02-17T07:59:43.572Z,87.50
2023-02-17T08:02:12.320Z,87.90
2023-02-17T08:04:39.893Z,87.90
2023-02-17T08:07:07.574Z,88.10
2023-02-17T08:09:53.208Z,88.30
2023-02-17T08:12:40.018Z,88.40
2023-02-17T08:15:09.867Z,88.40
2023-02-17T08:17:36.964Z,88.50
2023-02-17T08:20:08.688Z,88.50
2023-02-17T08:22:37.268Z,88.20
2023-02-17T08:25:06.490Z,87.40
2023-02-17T08:27:33.642Z,86.60
2023-02-17T08:30:00.854Z,85.80
2023-02-17T08:32:28.054Z,84.80
2023-02-17T08:34:58.990Z,85.00
2023-02-17T08:37:26.226Z,85.00
2023-02-17T08:39:54.041Z,85.30
2023-02-17T08:42:22.023Z,85.00
2023-02-17T08:44:49.345Z,84.90
2023-02-17T08:47:16.440Z,83.00
2023-02-17T08:49:43.773Z,83.30
2023-02-17T08:52:10.893Z,83.10
2023-02-17T08:54:39.142Z,83.10
2023-02-17T08:57:06.662Z,83.70
2023-02-17T08:59:34.315Z,84.00
2023-02-17T09:02:02.061Z,84.10
2023-02-17T09:04:29.261Z,83.60
2023-02-17T09:07:00.162Z,83.50
2023-02-17T09:09:30.506Z,83.10
2023-02-17T09:11:58.726Z,82.40
2023-02-17T09:14:27.505Z,81.70
2023-02-17T09:16:57.679Z,81.20
2023-02-17T09:19:26.274Z,80.60
2023-02-17T09:21:55.262Z,80.20
2023-02-17T09:24:23.791Z,79.90
2023-02-17T09:26:52.191Z,79.40
2023-02-17T09:29:20.269Z,78.70
2023-02-17T09:31:50.421Z,78.40
2023-02-17T09:34:17.942Z,78.30
2023-02-17T09:36:45.858Z,77.90
2023-02-17T09:39:17.635Z,77.60
2023-02-17T09:41:48.661Z,77.40
2023-02-17T09:44:32.876Z,77.60
2023-02-17T09:47:05.594Z,76.80
2023-02-17T09:49:41.942Z,77.00
2023-02-17T09:52:41.445Z,77.10
2023-02-17T09:55:13.661Z,76.70
2023-02-17T09:57:51.512Z,76.70
2023-02-17T10:00:33.280Z,77.50
2023-02-17T10:03:18.099Z,76.10
2023-02-17T10:06:01.078Z,75.50
2023-02-17T10:08:33.429Z,75.90
2023-02-17T10:11:24.334Z,76.10
2023-02-17T10:13:54.850Z,76.10
2023-02-17T10:16:31.322Z,75.40
2023-02-17T10:19:24.335Z,75.50
2023-02-17T10:22:11.802Z,75.00
2023-02-17T10:24:39.090Z,74.20
2023-02-17T10:27:23.511Z,74.30
2023-02-17T10:30:28.405Z,74.80
2023-02-17T10:33:20.417Z,74.80
2023-02-17T10:35:56.702Z,75.50
2023-02-17T10:38:47.398Z,75.70
2023-02-17T10:41:18.041Z,75.60
2023-02-17T10:43:48.344Z,75.60
2023-02-17T10:46:23.901Z,74.20
2023-02-17T10:48:53.762Z,73.70
2023-02-17T10:51:26.893Z,72.70
2023-02-17T10:54:09.058Z,72.60
2023-02-17T10:56:41.409Z,72.50
2023-02-17T10:59:20.538Z,72.80
2023-02-17T11:01:49.200Z,71.70
2023-02-17T11:04:16.276Z,70.70
2023-02-17T11:06:50.933Z,70.20
2023-02-17T11:09:32.908Z,70.50
2023-02-17T11:12:02.103Z,70.60
2023-02-17T11:14:32.722Z,70.00
2023-02-17T11:17:02.852Z,69.10
2023-02-17T11:19:36.547Z,69.40
2023-02-17T11:22:07.904Z,69.20
2023-02-17T11:24:35.994Z,68.70
2023-02-17T11:27:09.244Z,68.40
2023-02-17T11:29:36.560Z,66.30
2023-02-17T11:32:09.065Z,65.60
2023-02-17T11:34:39.822Z,65.10
2023-02-17T11:37:09.863Z,65.70
2023-02-17T11:39:42.493Z,64.00
2023-02-17T11:42:27.507Z,64.40
2023-02-17T11:44:59.304Z,64.20
2023-02-17T11:47:42.548Z,63.90
2023-02-17T11:50:35.385Z,64.10
2023-02-17T11:53:46.656Z,63.30
2023-02-17T11:56:26.913Z,63.40
2023-02-17T11:59:40.788Z,63.40
2023-02-17T12:02:19.099Z,62.00
2023-02-17T12:05:06.060Z,61.80
2023-02-17T12:07:47.857Z,62.20
2023-02-17T12:10:23.300Z,62.50
2023-02-17T12:13:08.682Z,62.40
2023-02-17T12:15:57.759Z,61.60
2023-02-17T12:18:30.844Z,60.70
2023-02-17T12:21:23.250Z,60.70
2023-02-17T12:24:12.172Z,59.20
2023-02-17T12:26:45.694Z,60.30
2023-02-17T12:29:45.568Z,61.30
2023-02-17T12:32:24.882Z,61.20
2023-02-17T12:35:04.517Z,60.70
2023-02-17T12:37:38.852Z,60.60
2023-02-17T12:40:40.009Z,60.30
2023-02-17T12:43:34.195Z,60.00
2023-02-17T12:46:06.417Z,59.00
2023-02-17T12:48:56.916Z,59.10
2023-02-17T12:51:32.568Z,58.30
2023-02-17T12:54:32.223Z,58.60
2023-02-17T12:57:15.647Z,59.50
2023-02-17T12:59:46.789Z,59.40
2023-02-17T13:02:20.955Z,59.20
2023-02-17T13:04:55.880Z,59.00
2023-02-17T13:07:41.986Z,58.30
2023-02-17T13:10:28.341Z,57.50
2023-02-17T13:13:22.685Z,57.30
2023-02-17T13:16:01.566Z,57.80
2023-02-17T13:18:33.277Z,58.20
2023-02-17T13:21:33.657Z,58.40
2023-02-17T13:24:34.901Z,58.10
2023-02-17T13:27:22.246Z,58.10
2023-02-17T13:30:22.746Z,58.20
2023-02-17T13:33:08.927Z,57.20
2023-02-17T13:35:40.058Z,56.90
2023-02-17T13:38:10.437Z,57.40
2023-02-17T13:40:44.127Z,57.40
2023-02-17T13:43:19.899Z,57.60
2023-02-17T13:46:02.067Z,57.80
2023-02-17T13:48:32.799Z,57.40
2023-02-17T13:51:02.808Z,57.60
2023-02-17T13:53:37.947Z,58.00
2023-02-17T13:56:27.717Z,57.80
2023-02-17T13:59:06.356Z,58.30
2023-02-17T14:01:38.501Z,58.40
2023-02-17T14:04:37.609Z,57.30
2023-02-17T14:07:10.772Z,57.20
2023-02-17T14:09:38.841Z,57.20
2023-02-17T14:12:23.920Z,57.10
2023-02-17T14:14:51.186Z,57.10
2023-02-17T14:17:32.826Z,57.40
2023-02-17T14:20:01.284Z,57.80
2023-02-17T14:22:33.320Z,57.90
2023-02-17T14:25:11.906Z,57.80
2023-02-17T14:27:48.355Z,57.70
2023-02-17T14:30:28.819Z,57.60
2023-02-17T14:33:16.491Z,57.80
2023-02-17T14:35:56.109Z,57.90
2023-02-17T14:38:35.283Z,57.10
2023-02-17T14:41:10.123Z,57.10
2023-02-17T14:43:37.673Z,57.40
2023-02-17T14:46:05.739Z,57.70
2023-02-17T14:48:33.949Z,57.50
2023-02-17T14:51:01.610Z,57.60
2023-02-17T14:53:34.275Z,57.40
2023-02-17T14:56:09.245Z,57.50
2023-02-17T14:58:37.064Z,57.20
2023-02-17T15:01:05.996Z,57.00
2023-02-17T15:03:33.414Z,57.40
2023-02-17T15:06:01.257Z,57.90
2023-02-17T15:08:35.382Z,58.10
2023-02-17T15:11:03.501Z,58.10
2023-02-17T15:13:32.685Z,58.10
2023-02-17T15:16:00.105Z,58.10
2023-02-17T15:18:28.257Z,58.10
2023-02-17T15:20:55.993Z,58.10
2023-02-17T15:23:26.482Z,58.20
2023-02-17T15:25:56.268Z,58.30
2023-02-17T15:28:24.020Z,58.30
2023-02-17T15:30:54.658Z,58.30
2023-02-17T15:33:23.826Z,59.00
2023-02-17T15:35:54.683Z,58.50
2023-02-17T15:38:22.947Z,58.90
2023-02-17T15:40:50.090Z,59.10
2023-02-17T15:43:24.486Z,59.30
2023-02-17T15:45:51.946Z,59.30
2023-02-17T15:48:25.104Z,59.00
2023-02-17T15:50:53.337Z,59.10
2023-02-17T15:53:22.848Z,60.00
2023-02-17T15:55:51.497Z,59.80
2023-02-17T15:58:22.964Z,60.00
2023-02-17T16:00:51.367Z,60.30
2023-02-17T16:03:19.911Z,60.80
2023-02-17T16:05:48.046Z,61.20
2023-02-17T16:08:17.980Z,61.40
2023-02-17T16:10:47.287Z,61.70
2023-02-17T16:13:20.292Z,62.00
2023-02-17T16:15:49.197Z,62.10
2023-02-17T16:18:24.011Z,62.20
2023-02-17T16:20:52.386Z,62.40
2023-02-17T16:23:19.942Z,62.50
2023-02-17T16:25:49.230Z,62.60
2023-02-17T16:28:19.834Z,62.80
2023-02-17T16:30:49.681Z,62.90
2023-02-17T16:33:19.065Z,63.30
2023-02-17T16:35:46.548Z,63.30
2023-02-17T16:38:30.523Z,63.10
2023-02-17T16:40:59.441Z,63.10
2023-02-17T16:43:31.626Z,63.10
2023-02-17T16:46:03.206Z,63.20
2023-02-17T16:48:35.128Z,63.40
2023-02-17T16:51:02.938Z,63.60
2023-02-17T16:53:30.320Z,63.90
2023-02-17T16:55:58.639Z,64.20
2023-02-17T16:58:26.604Z,64.50
2023-02-17T17:00:56.127Z,64.90
2023-02-17T17:03:25.615Z,65.10
2023-02-17T17:05:53.414Z,65.20
2023-02-17T17:08:24.558Z,65.30
2023-02-17T17:10:52.542Z,65.50
2023-02-17T17:13:19.651Z,65.60
2023-02-17T17:15:48.136Z,65.60
2023-02-17T17:18:21.752Z,65.80
2023-02-17T17:20:50.186Z,65.90
2023-02-17T17:23:20.438Z,66.00
2023-02-17T17:25:49.272Z,66.20
2023-02-17T17:28:20.089Z,66.50
2023-02-17T17:30:48.443Z,66.50
2023-02-17T17:33:16.558Z,66.50
2023-02-17T17:35:43.792Z,66.80
2023-02-17T17:38:15.501Z,67.00
2023-02-17T17:40:53.375Z,67.10
2023-02-17T17:43:22.302Z,67.20
2023-02-17T17:45:50.915Z,67.50
2023-02-17T17:48:18.140Z,67.80
2023-02-17T17:50:45.485Z,67.90
2023-02-17T17:53:12.779Z,68.00
2023-02-17T17:55:39.847Z,68.00
2023-02-17T17:58:07.217Z,68.10
2023-02-17T18:00:34.280Z,68.20
2023-02-17T18:03:05.830Z,68.40
2023-02-17T18:05:32.955Z,69.00
2023-02-17T18:08:03.063Z,69.40
2023-02-17T18:10:30.205Z,69.70
2023-02-17T18:12:57.748Z,70.00
2023-02-17T18:15:26.721Z,70.10
2023-02-17T18:17:53.853Z,70.20
2023-02-17T18:20:22.303Z,70.00
2023-02-17T18:22:49.356Z,70.00
2023-02-17T18:25:16.719Z,70.20
2023-02-17T18:27:47.106Z,70.50
2023-02-17T18:30:18.857Z,70.50
2023-02-17T18:32:48.145Z,70.80
2023-02-17T18:35:15.892Z,71.10
2023-02-17T18:37:44.189Z,71.60
2023-02-17T18:40:13.753Z,71.80
2023-02-17T18:42:43.089Z,71.80
2023-02-17T18:45:15.991Z,72.40
2023-02-17T18:47:43.594Z,73.00
2023-02-17T18:50:11.457Z,73.10
2023-02-17T18:52:40.462Z,73.10
2023-02-17T18:55:08.649Z,73.00
2023-02-17T18:57:36.632Z,73.10
2023-02-17T19:00:05.881Z,73.30
2023-02-17T19:02:35.268Z,73.80
2023-02-17T19:05:03.397Z,74.20
2023-02-17T19:07:31.897Z,74.50
2023-02-17T19:09:59.794Z,74.90
2023-02-17T19:12:26.975Z,75.20
2023-02-17T19:14:57.334Z,75.30
2023-02-17T19:17:25.451Z,75.60
2023-02-17T19:19:53.014Z,75.70
2023-02-17T19:22:20.652Z,76.10
2023-02-17T19:24:54.958Z,76.20
2023-02-17T19:27:22.182Z,76.10
2023-02-17T19:29:49.256Z,76.20
2023-02-17T19:32:16.480Z,76.40
2023-02-17T19:34:43.642Z,76.40
2023-02-17T19:37:10.796Z,76.70
2023-02-17T19:39:37.892Z,76.90
2023-02-17T19:42:05.135Z,76.80
2023-02-17T19:44:32.522Z,76.70
2023-02-17T19:47:00.945Z,76.90
2023-02-17T19:49:28.208Z,77.10
2023-02-17T19:51:55.959Z,77.20
2023-02-17T19:54:24.229Z,77.50
2023-02-17T19:56:52.269Z,77.90
2023-02-17T19:59:19.795Z,78.20
2023-02-17T20:01:47.346Z,78.40
2023-02-17T20:04:14.437Z,78.00
2023-02-17T20:06:47.720Z,77.30
2023-02-17T20:09:17.924Z,76.40
2023-02-17T20:11:46.882Z,76.30
2023-02-17T20:14:14.473Z,77.10
2023-02-17T20:16:41.729Z,78.00
2023-02-17T20:19:08.845Z,78.70
2023-02-17T20:21:38.700Z,78.70
2023-02-17T20:24:06.279Z,78.50
2023-02-17T20:26:37.938Z,79.50
2023-02-17T20:29:05.486Z,79.60
2023-02-17T20:31:35.019Z,79.00
2023-02-17T20:34:09.535Z,79.30
2023-02-17T20:36:36.913Z,79.10
2023-02-17T20:39:04.315Z,78.70
2023-02-17T20:41:31.584Z,78.80
2023-02-17T20:44:02.960Z,79.10
2023-02-17T20:46:32.237Z,79.10
2023-02-17T20:48:59.365Z,79.20
2023-02-17T20:51:26.806Z,79.80
2023-02-17T20:53:54.435Z,80.30
2023-02-17T20:56:24.994Z,80.10
2023-02-17T20:58:53.204Z,80.20
2023-02-17T21:01:20.236Z,80.10
2023-02-17T21:03:47.773Z,79.70
2023-02-17T21:06:19.739Z,79.20
2023-02-17T21:08:48.218Z,79.30
2023-02-17T21:11:15.258Z,79.50
2023-02-17T21:13:42.481Z,79.90
2023-02-17T21:16:17.034Z,80.20
2023-02-17T21:18:46.900Z,80.30
2023-02-17T21:21:15.110Z,79.60
2023-02-17T21:23:42.906Z,79.60
2023-02-17T21:26:11.669Z,79.30
2023-02-17T21:28:39.142Z,80.10
2023-02-17T21:31:08.114Z,80.90
2023-02-17T21:33:42.630Z,81.00
2023-02-17T21:36:12.016Z,80.80
2023-02-17T21:38:39.379Z,81.10
2023-02-17T21:41:15.574Z,81.40
2023-02-17T21:44:03.147Z,81.50
2023-02-17T21:46:30.958Z,82.10
2023-02-17T21:49:03.902Z,82.40
2023-02-17T21:51:31.797Z,82.50
2023-02-17T21:54:02.431Z,82.20
2023-02-17T21:56:29.983Z,81.90
2023-02-17T21:58:58.007Z,82.00
2023-02-17T22:01:27.724Z,81.90
2023-02-17T22:03:56.163Z,81.90
2023-02-17T22:06:26.115Z,82.40
2023-02-17T22:08:53.137Z,82.70
2023-02-17T22:11:30.206Z,83.00
2023-02-17T22:14:01.559Z,82.90
2023-02-17T22:16:34.424Z,82.70
2023-02-17T22:19:03.382Z,82.70
2023-02-17T22:21:30.877Z,83.20
2023-02-17T22:23:59.571Z,83.50
2023-02-17T22:26:27.581Z,84.00
2023-02-17T22:28:55.476Z,83.80
2023-02-17T22:31:25.819Z,83.50
2023-02-17T22:33:53.680Z,83.70
2023-02-17T22:36:23.050Z,84.00
2023-02-17T22:38:51.791Z,84.10
2023-02-17T22:41:21.668Z,84.20
2023-02-17T22:43:49.806Z,84.20
2023-02-17T22:46:19.456Z,84.20
2023-02-17T22:48:48.287Z,84.40
2023-02-17T22:51:18.498Z,84.50
2023-02-17T22:53:46.200Z,84.10
2023-02-17T22:56:13.873Z,84.20
2023-02-17T22:58:41.306Z,84.40
2023-02-17T23:01:13.734Z,84.10
2023-02-17T23:03:41.611Z,83.90
2023-02-17T23:06:17.911Z,84.00
2023-02-17T23:08:46.080Z,84.60
2023-02-17T23:11:16.194Z,85.10
2023-02-17T23:13:45.619Z,85.60
2023-02-17T23:16:22.279Z,85.80
2023-02-17T23:18:49.495Z,85.70
2023-02-17T23:21:16.611Z,85.30
2023-02-17T23:23:43.724Z,85.60
2023-02-17T23:26:11.020Z,85.70
2023-02-17T23:28:38.225Z,85.80
2023-02-17T23:31:10.185Z,85.90
2023-02-17T23:33:37.806Z,86.30
2023-02-17T23:36:06.544Z,86.50
2023-02-17T23:38:37.335Z,86.20
2023-02-17T23:41:05.503Z,86.00
2023-02-17T23:43:34.157Z,86.00
2023-02-17T23:46:02.642Z,86.20
2023-02-17T23:48:30.919Z,86.50
2023-02-17T23:51:04.033Z,86.60
2023-02-17T23:53:32.270Z,85.90
2023-02-17T23:56:14.268Z,85.60
2023-02-17T23:58:41.659Z,86.00
